Hlavní strana
METAR-TAF:

METAR-TAF

Letiště :

Belém, Pará, Brazílie

zeměpisná šířka: 01-23S, zeměpisná délka: 048-29W, výška: 16 m

Aktuální stav počasí

Zpráva byla vytvořena před 1 hodinou a 13 minutami, v 22:00 UTC
Východní vítr 6 kt
Teplota 24°C
Vlhkost vzduchu 94%
Tlak 1015 hPa
Viditelnost 10 km a více
Polojasno ve výšce 2500 ft
Skoro jasno ve výšce 3000 ft, Vertikální cumulus.
Polojasno ve výšce 10000 ft

METAR: SBBE 182200Z 10006KT 9999 SCT025 FEW030TCU SCT100 24/23 Q1015 R ETS

Čas: 20:13 (23:13 UTC)

Předpověď počasí

Zpráva byla vytvořena před 7 hodinami a 13 minutami, v 16:00 UTC
Předpověď platná od 18 v 18 UTC do 19 v 18 UTC
Východojihovýchodní vítr 8 kt
Viditelnost 10 km a více
Skoro jasno ve výšce 3500 ft
Pravděpodobnost 40%
od 18 v 22 UTC do 19 v 02 UTC
Viditelnost: 5000 m
Polojasno ve výšce 2000 ft
Skoro jasno ve výšce 4000 ft, Cumulonimbus.
bouřka, déšť

TAF: SBBE 181600Z 1818/1918 11008KT 9999 FEW035 TX31/1818Z TN23/1905Z PROB40 1822/1902 5000 TSRA SCT020 FEW040CB RMK PBM

Stav a předpovědi počasí z více než 4 000 letišť (zprávy METAR a TAF).

Červené a žluté tečky na mapě představují dostupné meteorologické stanice.

Když kurzor umístíte na tečku, zobrazí se název stanice.

Pak kliknutím zobrazíte stav a předpověď počasí.

Chcete-li změnit mapu, kliknutím na zelené tlačítko se znaménkem +mapu přiblížíte, kliknutím na zelené tlačítko se znaménkem – mapu oddálíte a kliknutím na zelené šipky přejdete na sousední mapy.


METAR-TAF: